createdAt,value
2019-04-10T00:00:10.630Z,2.50
2019-04-10T00:02:39.833Z,2.80
2019-04-10T00:05:08.199Z,2.92
2019-04-10T00:07:39.532Z,3.25
2019-04-10T00:10:09.734Z,3.10
2019-04-10T00:12:38.888Z,3.15
2019-04-10T00:15:09.215Z,2.98
2019-04-10T00:17:38.271Z,3.05
2019-04-10T00:20:07.842Z,2.95
2019-04-10T00:22:36.815Z,3.12
2019-04-10T00:25:06.141Z,2.90
2019-04-10T00:27:35.132Z,2.95
2019-04-10T00:30:04.892Z,3.52
2019-04-10T00:32:34.203Z,2.52
2019-04-10T00:37:32.618Z,2.58
2019-04-10T00:40:01.857Z,2.95
2019-04-10T00:42:30.556Z,2.87
2019-04-10T00:44:59.737Z,2.83
2019-04-10T00:47:28.792Z,2.65
2019-04-10T00:49:57.921Z,3.22
2019-04-10T00:52:26.868Z,2.75
2019-04-10T00:54:55.557Z,2.25
2019-04-10T00:57:24.239Z,2.87
2019-04-10T00:59:53.109Z,2.85
2019-04-10T01:02:22.668Z,2.55
2019-04-10T01:04:51.664Z,2.33
2019-04-10T01:07:32.699Z,3.45
2019-04-10T01:09:50.952Z,3.02
2019-04-10T01:12:19.658Z,2.85
2019-04-10T01:14:48.362Z,2.70
2019-04-10T01:17:17.018Z,2.83
2019-04-10T01:19:45.698Z,2.70
2019-04-10T01:22:14.946Z,2.98
2019-04-10T01:24:43.984Z,2.83
2019-04-10T01:27:12.638Z,3.02
2019-04-10T01:29:41.921Z,3.25
2019-04-10T01:32:11.902Z,3.10
2019-04-10T01:34:41.258Z,3.08
2019-04-10T01:39:38.074Z,2.98
2019-04-10T01:42:08.135Z,3.15
2019-04-10T01:44:37.199Z,3.35
2019-04-10T01:47:06.721Z,2.90
2019-04-10T01:49:35.827Z,3.08
2019-04-10T01:52:04.804Z,2.87
2019-04-10T01:57:02.048Z,3.20
2019-04-10T01:59:32.309Z,2.70
2019-04-10T02:02:03.045Z,2.87
2019-04-10T02:04:33.043Z,2.85
2019-04-10T02:07:02.212Z,3.22
2019-04-10T02:09:31.677Z,3.15
2019-04-10T02:12:00.706Z,3.27
2019-04-10T02:14:30.016Z,3.20
2019-04-10T02:16:59.060Z,3.02
2019-04-10T02:19:27.771Z,3.25
2019-04-10T02:21:56.379Z,3.08
2019-04-10T02:24:25.258Z,3.02
2019-04-10T02:26:54.048Z,2.80
2019-04-10T02:29:23.792Z,3.05
2019-04-10T02:31:53.383Z,3.22
2019-04-10T02:34:23.713Z,2.87
2019-04-10T02:36:55.304Z,3.52
2019-04-10T02:39:33.526Z,3.15
2019-04-10T02:41:56.201Z,3.22
2019-04-10T02:44:27.964Z,3.10
2019-04-10T02:46:57.934Z,3.02
2019-04-10T02:49:27.855Z,3.45
2019-04-10T02:51:57.087Z,3.27
2019-04-10T02:54:26.934Z,2.98
2019-04-10T02:56:56.900Z,3.27
2019-04-10T02:59:27.004Z,3.00
2019-04-10T03:01:56.298Z,3.00
2019-04-10T03:04:26.750Z,2.95
2019-04-10T03:06:55.594Z,3.40
2019-04-10T03:11:53.420Z,3.10
2019-04-10T03:14:22.111Z,3.58
2019-04-10T03:16:51.458Z,3.47
2019-04-10T03:19:21.331Z,3.17
2019-04-10T03:21:51.281Z,3.72
2019-04-10T03:24:21.283Z,3.85
2019-04-10T03:26:50.370Z,4.08
2019-04-10T03:29:19.893Z,3.17
2019-04-10T03:31:50.513Z,3.70
2019-04-10T03:34:22.604Z,3.42
2019-04-10T03:36:51.816Z,3.37
2019-04-10T03:39:21.521Z,3.10
2019-04-10T03:41:50.606Z,3.47
2019-04-10T03:44:19.241Z,2.95
2019-04-10T03:46:48.937Z,3.80
2019-04-10T03:49:17.962Z,3.42
2019-04-10T03:51:47.114Z,3.77
2019-04-10T03:54:16.045Z,4.03
2019-04-10T03:56:45.658Z,3.47
2019-04-10T03:59:14.566Z,3.75
2019-04-10T04:01:43.163Z,3.45
2019-04-10T04:04:11.753Z,3.37
2019-04-10T04:06:40.351Z,3.83
2019-04-10T04:09:11.658Z,3.87
2019-04-10T04:11:39.983Z,3.87
2019-04-10T04:16:37.337Z,4.12
2019-04-10T04:21:34.400Z,3.05
2019-04-10T04:24:03.649Z,3.52
2019-04-10T04:26:32.626Z,4.58
2019-04-10T04:29:02.048Z,3.92
2019-04-10T04:31:31.234Z,3.70
2019-04-10T04:33:59.795Z,3.80
2019-04-10T04:36:28.704Z,4.08
2019-04-10T04:38:57.740Z,3.60
2019-04-10T04:43:53.861Z,3.80
2019-04-10T04:46:22.455Z,3.58
2019-04-10T04:48:52.190Z,3.58
2019-04-10T04:51:21.958Z,3.77
2019-04-10T04:53:50.893Z,4.08
2019-04-10T04:56:19.917Z,3.50
2019-04-10T04:58:49.696Z,3.77
2019-04-10T05:01:18.995Z,5.00
2019-04-10T05:03:48.244Z,3.60
2019-04-10T05:06:18.127Z,4.08
2019-04-10T05:08:47.078Z,4.03
2019-04-10T05:11:15.782Z,4.05
2019-04-10T05:13:44.383Z,4.30
2019-04-10T05:16:13.034Z,3.85
2019-04-10T05:18:41.726Z,4.03
2019-04-10T05:21:10.620Z,4.37
2019-04-10T05:23:38.984Z,3.60
2019-04-10T05:26:08.159Z,4.08
2019-04-10T05:28:38.082Z,4.00
2019-04-10T05:31:07.103Z,3.42
2019-04-10T05:33:36.714Z,3.70
2019-04-10T05:36:06.857Z,4.12
2019-04-10T05:38:35.930Z,3.92
2019-04-10T05:41:04.812Z,4.08
2019-04-10T05:43:34.185Z,4.30
2019-04-10T05:46:03.187Z,4.25
2019-04-10T05:48:31.859Z,3.92
2019-04-10T05:51:04.305Z,3.77
2019-04-10T05:53:32.365Z,4.33
2019-04-10T05:56:01.538Z,3.65
2019-04-10T05:58:31.418Z,3.50
2019-04-10T06:01:02.111Z,4.40
2019-04-10T06:03:31.075Z,4.22
2019-04-10T06:06:01.135Z,3.87
2019-04-10T06:08:31.187Z,3.60
2019-04-10T06:11:00.273Z,4.10
2019-04-10T06:13:28.982Z,3.65
2019-04-10T06:15:57.644Z,4.05
2019-04-10T06:18:27.170Z,4.00
2019-04-10T06:20:56.680Z,3.33
2019-04-10T06:23:25.690Z,3.72
2019-04-10T06:25:54.348Z,3.98
2019-04-10T06:28:24.698Z,4.53
2019-04-10T06:30:54.489Z,3.65
2019-04-10T06:33:24.341Z,3.67
2019-04-10T06:35:55.132Z,3.45
2019-04-10T06:38:24.113Z,4.03
2019-04-10T06:40:52.797Z,4.45
2019-04-10T06:43:22.554Z,4.10
2019-04-10T06:45:52.380Z,4.67
2019-04-10T06:48:20.775Z,5.92
2019-04-10T06:50:49.427Z,4.95
2019-04-10T06:53:18.703Z,4.10
2019-04-10T06:55:48.828Z,4.17
2019-04-10T06:58:17.923Z,3.92
2019-04-10T07:00:48.637Z,4.10
2019-04-10T07:03:17.211Z,3.98
2019-04-10T07:06:00.430Z,3.58
2019-04-10T07:08:20.507Z,3.83
2019-04-10T07:10:54.156Z,4.92
2019-04-10T07:13:17.997Z,4.30
2019-04-10T07:15:47.027Z,4.60
2019-04-10T07:20:46.341Z,3.55
2019-04-10T07:23:23.358Z,3.55
2019-04-10T07:25:47.264Z,4.15
2019-04-10T07:28:17.432Z,3.70
2019-04-10T07:30:46.009Z,3.87
2019-04-10T07:33:16.749Z,3.98
2019-04-10T07:35:46.381Z,4.10
2019-04-10T07:38:15.968Z,4.90
2019-04-10T07:40:45.040Z,4.00
2019-04-10T07:43:13.708Z,3.52
2019-04-10T07:45:42.385Z,3.67
2019-04-10T07:48:10.991Z,3.25
2019-04-10T07:50:39.568Z,3.62
2019-04-10T07:53:08.430Z,3.45
2019-04-10T07:55:37.387Z,3.85
2019-04-10T07:58:06.857Z,3.90
2019-04-10T08:00:36.648Z,3.37
2019-04-10T08:03:06.297Z,3.72
2019-04-10T08:05:35.476Z,7.45
2019-04-10T08:08:05.166Z,4.25
2019-04-10T08:10:34.805Z,3.98
2019-04-10T08:13:04.540Z,3.80
2019-04-10T08:15:33.721Z,4.10
2019-04-10T08:18:02.618Z,3.80
2019-04-10T08:20:31.027Z,4.40
2019-04-10T08:22:59.720Z,3.98
2019-04-10T08:25:29.139Z,4.05
2019-04-10T08:27:58.507Z,4.50
2019-04-10T08:30:27.970Z,3.55
2019-04-10T08:35:25.684Z,3.87
2019-04-10T08:37:54.350Z,3.83
2019-04-10T08:40:23.195Z,3.60
2019-04-10T08:42:51.664Z,3.70
2019-04-10T08:45:21.040Z,3.50
2019-04-10T08:47:50.821Z,4.15
2019-04-10T08:50:19.889Z,3.90
2019-04-10T08:52:48.719Z,3.33
2019-04-10T08:55:17.751Z,3.65
2019-04-10T09:00:14.546Z,3.90
2019-04-10T09:02:44.381Z,3.52
2019-04-10T09:05:13.346Z,3.17
2019-04-10T09:07:41.968Z,3.25
2019-04-10T09:10:10.753Z,3.67
2019-04-10T09:12:39.414Z,3.08
2019-04-10T09:15:08.082Z,3.47
2019-04-10T09:17:37.658Z,4.08
2019-04-10T09:20:07.122Z,3.20
2019-04-10T09:25:06.963Z,2.80
2019-04-10T09:27:35.994Z,3.42
2019-04-10T09:30:06.728Z,3.55
2019-04-10T09:32:36.786Z,4.25
2019-04-10T09:35:06.634Z,3.40
2019-04-10T09:37:35.620Z,3.05
2019-04-10T09:40:06.233Z,2.50
2019-04-10T09:42:35.418Z,2.92
2019-04-10T09:45:04.753Z,2.90
2019-04-10T09:47:34.722Z,3.17
2019-04-10T09:50:05.582Z,2.83
2019-04-10T09:52:35.654Z,3.37
2019-04-10T09:55:05.612Z,3.60
2019-04-10T09:57:34.671Z,2.65
2019-04-10T10:00:03.377Z,2.83
2019-04-10T10:02:31.761Z,2.70
2019-04-10T10:05:00.375Z,2.72
2019-04-10T10:07:28.987Z,2.87
2019-04-10T10:09:59.677Z,2.55
2019-04-10T10:12:28.258Z,3.12
2019-04-10T10:14:57.001Z,3.35
2019-04-10T10:17:25.649Z,3.00
2019-04-10T10:19:55.277Z,2.98
2019-04-10T10:22:25.181Z,2.92
2019-04-10T10:24:55.254Z,3.10
2019-04-10T10:27:24.773Z,3.45
2019-04-10T10:29:54.914Z,2.83
2019-04-10T10:32:24.708Z,2.70
2019-04-10T10:34:54.543Z,3.02
2019-04-10T10:37:24.177Z,3.22
2019-04-10T10:39:53.132Z,2.98
2019-04-10T10:42:21.813Z,3.10
2019-04-10T10:44:50.470Z,2.37
2019-04-10T10:47:20.129Z,2.67
2019-04-10T10:49:49.119Z,2.80
2019-04-10T10:52:17.883Z,2.72
2019-04-10T10:54:47.258Z,2.87
2019-04-10T10:57:17.176Z,2.58
2019-04-10T10:59:46.195Z,2.72
2019-04-10T11:02:14.857Z,2.70
2019-04-10T11:04:43.541Z,3.10
2019-04-10T11:07:12.126Z,2.40
2019-04-10T11:09:41.751Z,2.20
2019-04-10T11:12:12.176Z,2.58
2019-04-10T11:14:41.347Z,3.42
2019-04-10T11:17:09.979Z,2.75
2019-04-10T11:19:39.463Z,2.92
2019-04-10T11:22:09.386Z,2.67
2019-04-10T11:24:40.735Z,2.52
2019-04-10T11:27:09.994Z,2.90
2019-04-10T11:29:39.631Z,2.50
2019-04-10T11:32:09.267Z,2.55
2019-04-10T11:34:38.314Z,3.40
2019-04-10T11:37:19.872Z,2.30
2019-04-10T11:39:42.764Z,2.80
2019-04-10T11:42:09.962Z,2.80
2019-04-10T11:44:39.677Z,2.98
2019-04-10T11:47:10.490Z,3.40
2019-04-10T11:49:43.024Z,3.35
2019-04-10T11:52:11.150Z,2.62
2019-04-10T11:54:41.591Z,2.67
2019-04-10T11:57:13.205Z,3.20
2019-04-10T11:59:44.751Z,3.27
2019-04-10T12:02:14.278Z,3.17
2019-04-10T12:04:50.407Z,2.42
2019-04-10T12:07:48.086Z,2.62
2019-04-10T12:12:14.995Z,2.58
2019-04-10T12:14:43.733Z,2.47
2019-04-10T12:17:12.380Z,8.60
2019-04-10T12:19:41.071Z,9.48
2019-04-10T12:22:09.752Z,4.40
2019-04-10T12:24:38.477Z,2.52
2019-04-10T12:27:07.112Z,3.20
2019-04-10T12:29:35.826Z,2.95
2019-04-10T12:32:04.490Z,3.17
2019-04-10T12:34:34.130Z,2.40
2019-04-10T12:37:03.110Z,2.55
2019-04-10T12:39:32.219Z,3.40
2019-04-10T12:42:01.186Z,4.65
2019-04-10T12:44:29.857Z,2.85
2019-04-10T12:46:59.499Z,3.45
2019-04-10T12:49:29.680Z,2.92
2019-04-10T12:51:58.612Z,2.95
2019-04-10T12:54:28.014Z,2.80
2019-04-10T12:56:56.988Z,3.08
2019-04-10T12:59:25.707Z,2.72
2019-04-10T13:01:55.410Z,3.20
2019-04-10T13:04:24.697Z,2.70
2019-04-10T13:09:22.179Z,2.90
2019-04-10T13:11:51.157Z,2.75
2019-04-10T13:14:19.841Z,2.90
2019-04-10T13:16:48.429Z,2.92
2019-04-10T13:19:17.052Z,2.40
2019-04-10T13:21:46.697Z,3.22
2019-04-10T13:24:15.682Z,2.75
2019-04-10T13:26:44.375Z,3.37
2019-04-10T13:29:14.109Z,2.90
2019-04-10T13:31:42.828Z,2.67
2019-04-10T13:34:11.410Z,2.60
2019-04-10T13:36:40.075Z,2.60
2019-04-10T13:39:12.842Z,2.83
2019-04-10T13:41:42.867Z,3.15
2019-04-10T13:44:12.095Z,2.85
2019-04-10T13:46:40.688Z,2.70
2019-04-10T13:54:06.270Z,2.75
2019-04-10T13:59:02.641Z,2.50
2019-04-10T14:01:35.676Z,2.83
2019-04-10T14:04:05.036Z,2.93
2019-04-10T14:06:33.955Z,2.60
2019-04-10T14:09:17.523Z,2.30
2019-04-10T14:11:33.324Z,2.50
2019-04-10T14:14:02.442Z,3.30
2019-04-10T14:16:31.291Z,3.10
2019-04-10T14:18:59.685Z,3.17
2019-04-10T14:21:29.079Z,3.90
2019-04-10T14:23:57.985Z,5.10
2019-04-10T14:26:42.000Z,3.20
2019-04-10T14:29:05.685Z,3.35
2019-04-10T14:31:36.413Z,3.67
2019-04-10T14:34:06.573Z,2.90
2019-04-10T14:36:35.996Z,3.73
2019-04-10T14:39:13.358Z,2.57
2019-04-10T14:41:38.250Z,2.70
2019-04-10T14:44:06.921Z,2.37
2019-04-10T14:49:03.509Z,3.40
2019-04-10T14:54:01.708Z,5.62
2019-04-10T14:56:30.518Z,5.73
2019-04-10T14:58:59.742Z,5.20
2019-04-10T15:01:30.189Z,4.40
2019-04-10T15:03:58.915Z,4.60
2019-04-10T15:06:27.535Z,5.97
2019-04-10T15:08:56.215Z,4.60
2019-04-10T15:11:24.848Z,4.53
2019-04-10T15:13:53.557Z,5.67
2019-04-10T15:16:23.110Z,5.77
2019-04-10T15:18:52.042Z,10.03
2019-04-10T15:21:20.880Z,3.70
2019-04-10T15:23:49.602Z,4.80
2019-04-10T15:26:18.275Z,6.03
2019-04-10T15:28:47.721Z,5.63
2019-04-10T15:31:17.282Z,5.00
2019-04-10T15:33:46.630Z,4.43
2019-04-10T15:36:15.809Z,4.53
2019-04-10T15:38:44.493Z,4.00
2019-04-10T15:41:13.165Z,3.80
2019-04-10T15:43:41.787Z,6.00
2019-04-10T15:46:10.786Z,3.73
2019-04-10T15:48:39.522Z,5.03
2019-04-10T15:51:08.237Z,7.00
2019-04-10T15:53:36.839Z,3.80
2019-04-10T15:56:05.569Z,7.03
2019-04-10T15:58:35.327Z,3.10
2019-04-10T16:01:05.717Z,3.27
2019-04-10T16:03:34.534Z,3.80
2019-04-10T16:06:03.934Z,5.03
2019-04-10T16:08:32.995Z,4.33
2019-04-10T16:11:12.396Z,2.50
2019-04-10T16:13:46.388Z,2.00
2019-04-10T16:16:34.703Z,2.10
2019-04-10T16:19:22.235Z,1.65
2019-04-10T16:21:52.189Z,1.80
2019-04-10T16:24:22.889Z,1.60
2019-04-10T16:26:51.822Z,1.60
2019-04-10T16:29:20.493Z,1.70
2019-04-10T16:31:50.208Z,1.62
2019-04-10T16:34:19.818Z,2.00
2019-04-10T16:36:48.540Z,1.63
2019-04-10T16:39:19.695Z,2.27
2019-04-10T16:41:48.677Z,1.87
2019-04-10T16:44:17.339Z,2.20
2019-04-10T16:46:49.218Z,2.10
2019-04-10T16:49:16.964Z,2.00
2019-04-10T16:54:13.172Z,3.97
2019-04-10T16:56:42.255Z,2.30
2019-04-10T16:59:12.181Z,2.50
2019-04-10T17:01:40.819Z,2.30
2019-04-10T17:04:09.422Z,2.05
2019-04-10T17:06:38.701Z,2.40
2019-04-10T17:09:10.282Z,2.60
2019-04-10T17:11:39.221Z,2.50
2019-04-10T17:14:07.884Z,2.60
2019-04-10T17:16:37.698Z,2.70
2019-04-10T17:19:07.696Z,2.80
2019-04-10T17:21:36.656Z,2.80
2019-04-10T17:24:05.386Z,4.12
2019-04-10T17:26:35.060Z,3.35
2019-04-10T17:29:04.975Z,2.85
2019-04-10T17:31:35.018Z,3.15
2019-04-10T17:34:03.968Z,2.98
2019-04-10T17:36:32.853Z,2.95
2019-04-10T17:39:02.842Z,3.33
2019-04-10T17:41:31.887Z,2.92
2019-04-10T17:44:02.394Z,3.02
2019-04-10T17:46:31.282Z,3.22
2019-04-10T17:49:01.098Z,3.00
2019-04-10T17:51:30.399Z,3.52
2019-04-10T17:56:26.568Z,3.00
2019-04-10T17:58:56.042Z,3.52
2019-04-10T18:01:27.166Z,3.12
2019-04-10T18:03:59.855Z,3.50
2019-04-10T18:06:27.691Z,3.45
2019-04-10T18:08:57.058Z,3.52
2019-04-10T18:11:26.089Z,3.33
2019-04-10T18:13:55.234Z,3.98
2019-04-10T18:16:25.504Z,3.83
2019-04-10T18:18:55.811Z,3.98
2019-04-10T18:21:24.789Z,3.70
2019-04-10T18:23:53.613Z,3.75
2019-04-10T18:26:22.219Z,4.25
2019-04-10T18:28:51.895Z,3.87
2019-04-10T18:31:23.708Z,4.50
2019-04-10T18:33:51.723Z,4.70
2019-04-10T18:36:20.414Z,4.17
2019-04-10T18:38:49.917Z,4.62
2019-04-10T18:41:19.957Z,5.05
2019-04-10T18:43:48.658Z,4.87
2019-04-10T18:46:19.505Z,5.12
2019-04-10T18:48:48.548Z,5.72
2019-04-10T18:51:18.402Z,5.62
2019-04-10T18:53:47.093Z,5.20
2019-04-10T18:56:16.673Z,5.35
2019-04-10T18:58:56.475Z,5.50
2019-04-10T19:01:32.624Z,5.17
2019-04-10T19:04:06.020Z,5.65
2019-04-10T19:06:49.676Z,5.72
2019-04-10T19:09:24.559Z,7.22
2019-04-10T19:11:50.569Z,9.13
2019-04-10T19:14:20.727Z,7.08
2019-04-10T19:16:49.937Z,7.60
2019-04-10T19:19:18.593Z,8.55
2019-04-10T19:21:48.456Z,6.55
2019-04-10T19:24:18.032Z,7.08
2019-04-10T19:26:47.415Z,14.33
2019-04-10T19:31:45.731Z,5.53
2019-04-10T19:34:14.937Z,5.67
2019-04-10T19:36:43.902Z,5.47
2019-04-10T19:41:41.888Z,5.10
2019-04-10T19:44:10.885Z,4.95
2019-04-10T19:46:39.852Z,5.60
2019-04-10T19:49:08.331Z,5.83
2019-04-10T19:51:37.029Z,5.58
2019-04-10T19:54:07.481Z,7.53
2019-04-10T19:56:36.976Z,11.40
2019-04-10T19:59:06.331Z,5.85
2019-04-10T20:04:03.966Z,5.08
2019-04-10T20:06:33.247Z,5.97
2019-04-10T20:09:01.618Z,5.67
2019-04-10T20:11:37.536Z,5.42
2019-04-10T20:14:01.608Z,5.65
2019-04-10T20:16:31.262Z,5.65
2019-04-10T20:19:01.248Z,6.33
2019-04-10T20:21:30.291Z,8.40
2019-04-10T20:23:58.886Z,5.55
2019-04-10T20:26:27.497Z,6.08
2019-04-10T20:28:57.320Z,6.00
2019-04-10T20:31:29.007Z,6.37
2019-04-10T20:33:59.090Z,5.85
2019-04-10T20:36:28.999Z,5.85
2019-04-10T20:38:59.043Z,5.83
2019-04-10T20:41:28.778Z,5.47
2019-04-10T20:43:57.782Z,6.00
2019-04-10T20:46:26.459Z,5.17
2019-04-10T20:48:55.102Z,5.97
2019-04-10T20:51:24.869Z,6.20
2019-04-10T20:53:53.945Z,6.05
2019-04-10T20:56:22.644Z,6.20
2019-04-10T20:58:51.286Z,6.47
2019-04-10T21:01:20.304Z,6.60
2019-04-10T21:03:50.205Z,5.90
2019-04-10T21:06:19.155Z,5.78
2019-04-10T21:08:47.831Z,6.28
2019-04-10T21:11:16.550Z,6.37
2019-04-10T21:13:45.269Z,5.35
2019-04-10T21:16:14.033Z,6.87
2019-04-10T21:18:42.616Z,6.87
2019-04-10T21:21:12.278Z,7.05
2019-04-10T21:23:42.089Z,6.80
2019-04-10T21:26:12.131Z,6.67
2019-04-10T21:28:41.587Z,5.95
2019-04-10T21:31:28.520Z,6.08
2019-04-10T21:34:05.569Z,6.33
2019-04-10T21:36:36.976Z,5.90
2019-04-10T21:39:07.482Z,6.37
2019-04-10T21:41:36.885Z,5.92
2019-04-10T21:44:06.431Z,6.35
2019-04-10T21:46:35.371Z,6.62
2019-04-10T21:49:04.044Z,7.05
2019-04-10T21:51:33.601Z,6.08
2019-04-10T21:54:02.845Z,6.62
2019-04-10T21:56:31.515Z,6.62
2019-04-10T21:59:01.168Z,7.00
2019-04-10T22:01:30.480Z,6.22
2019-04-10T22:03:59.132Z,6.57
2019-04-10T22:06:39.450Z,6.78
2019-04-10T22:09:14.550Z,7.50
2019-04-10T22:11:48.014Z,6.33
2019-04-10T22:14:17.197Z,6.42
2019-04-10T22:16:46.351Z,6.17
2019-04-10T22:19:16.606Z,6.80
2019-04-10T22:21:46.196Z,6.28
2019-04-10T22:24:15.744Z,6.40
2019-04-10T22:26:44.775Z,5.72
2019-04-10T22:29:14.156Z,6.55
2019-04-10T22:31:43.768Z,6.17
2019-04-10T22:34:13.638Z,5.97
2019-04-10T22:36:42.556Z,6.10
2019-04-10T22:39:12.895Z,6.08
2019-04-10T22:41:42.787Z,6.87
2019-04-10T22:44:11.834Z,6.03
2019-04-10T22:46:40.511Z,6.50
2019-04-10T22:49:10.315Z,6.28
2019-04-10T22:51:39.770Z,7.10
2019-04-10T22:54:08.829Z,6.55
2019-04-10T22:56:37.816Z,6.37
2019-04-10T22:59:06.183Z,6.67
2019-04-10T23:01:35.480Z,5.65
2019-04-10T23:04:04.560Z,6.12
2019-04-10T23:06:33.351Z,6.40
2019-04-10T23:09:02.160Z,6.35
2019-04-10T23:11:38.459Z,6.45
2019-04-10T23:14:02.529Z,6.00
2019-04-10T23:16:32.405Z,6.00
2019-04-10T23:19:01.584Z,5.90
2019-04-10T23:21:30.387Z,6.53
2019-04-10T23:26:27.755Z,6.57
2019-04-10T23:28:56.432Z,6.78
2019-04-10T23:31:25.734Z,6.87
2019-04-10T23:33:54.699Z,6.83
2019-04-10T23:36:24.639Z,6.80
2019-04-10T23:38:53.636Z,7.17
2019-04-10T23:41:23.251Z,7.10
2019-04-10T23:43:52.259Z,7.67
2019-04-10T23:46:22.141Z,7.55
2019-04-10T23:48:51.223Z,6.95
2019-04-10T23:51:21.064Z,7.08
2019-04-10T23:53:50.932Z,6.35
2019-04-10T23:56:20.040Z,5.87
2019-04-10T23:58:49.187Z,5.78
